createdAt,value
2019-04-11T00:00:01.301Z,12.90
2019-04-11T00:02:33.021Z,12.90
2019-04-11T00:05:04.354Z,12.90
2019-04-11T00:07:36.294Z,12.80
2019-04-11T00:10:08.194Z,12.80
2019-04-11T00:12:38.906Z,12.70
2019-04-11T00:15:09.316Z,12.70
2019-04-11T00:17:41.830Z,12.60
2019-04-11T00:20:13.789Z,12.60
2019-04-11T00:22:44.438Z,12.60
2019-04-11T00:25:15.658Z,12.70
2019-04-11T00:27:46.196Z,12.70
2019-04-11T00:30:17.810Z,12.70
2019-04-11T00:32:49.687Z,12.70
2019-04-11T00:35:20.288Z,12.70
2019-04-11T00:37:53.640Z,12.70
2019-04-11T00:40:24.874Z,12.80
2019-04-11T00:42:55.428Z,12.80
2019-04-11T00:45:25.826Z,12.80
2019-04-11T00:47:59.535Z,12.80
2019-04-11T00:50:30.164Z,12.80
2019-04-11T00:53:01.479Z,12.80
2019-04-11T00:55:32.493Z,12.80
2019-04-11T00:58:03.489Z,12.80
2019-04-11T01:00:36.514Z,12.70
2019-04-11T01:03:06.525Z,12.70
2019-04-11T01:05:37.381Z,12.60
2019-04-11T01:08:08.301Z,12.60
2019-04-11T01:10:39.722Z,12.50
2019-04-11T01:13:11.180Z,12.40
2019-04-11T01:15:43.473Z,12.30
2019-04-11T01:18:14.009Z,12.30
2019-04-11T01:20:44.481Z,12.30
2019-04-11T01:23:15.153Z,12.30
2019-04-11T01:25:46.456Z,12.40
2019-04-11T01:28:17.026Z,12.40
2019-04-11T01:30:49.247Z,12.30
2019-04-11T01:33:20.678Z,12.30
2019-04-11T01:35:51.594Z,12.30
2019-04-11T01:38:25.538Z,12.30
2019-04-11T01:40:56.221Z,12.20
2019-04-11T01:43:26.715Z,12.20
2019-04-11T01:45:57.987Z,12.10
2019-04-11T01:48:42.453Z,12.10
2019-04-11T01:51:13.746Z,12.10
2019-04-11T01:53:45.245Z,12.10
2019-04-11T01:56:16.810Z,12.10
2019-04-11T01:58:47.641Z,12.10
2019-04-11T02:01:34.877Z,12.10
2019-04-11T02:04:07.739Z,12.00
2019-04-11T02:06:38.431Z,12.00
2019-04-11T02:09:13.757Z,12.00
2019-04-11T02:11:45.736Z,12.00
2019-04-11T02:14:19.243Z,11.90
2019-04-11T02:16:50.626Z,11.90
2019-04-11T02:19:20.707Z,11.90
2019-04-11T02:21:53.710Z,11.90
2019-04-11T02:24:41.739Z,11.90
2019-04-11T02:27:19.034Z,11.90
2019-04-11T02:29:50.836Z,11.90
2019-04-11T02:32:24.422Z,11.90
2019-04-11T02:34:57.118Z,11.90
2019-04-11T02:37:26.597Z,12.00
2019-04-11T02:39:58.050Z,12.00
2019-04-11T02:42:30.812Z,11.90
2019-04-11T02:45:16.452Z,11.90
2019-04-11T02:47:37.237Z,11.90
2019-04-11T02:50:08.307Z,12.00
2019-04-11T02:52:40.235Z,11.90
2019-04-11T02:55:13.009Z,11.90
2019-04-11T02:57:43.175Z,12.00
2019-04-11T03:00:15.848Z,12.00
2019-04-11T03:02:47.897Z,12.00
2019-04-11T03:05:20.711Z,11.90
2019-04-11T03:07:51.554Z,11.90
2019-04-11T03:10:22.475Z,11.90
2019-04-11T03:12:54.451Z,11.90
2019-04-11T03:15:41.452Z,11.90
2019-04-11T03:18:01.973Z,11.90
2019-04-11T03:20:38.301Z,11.90
2019-04-11T03:23:05.808Z,11.90
2019-04-11T03:25:34.157Z,11.90
2019-04-11T03:28:13.775Z,11.80
2019-04-11T03:31:01.311Z,11.80
2019-04-11T03:36:38.027Z,11.80
2019-04-11T03:38:38.467Z,11.80
2019-04-11T03:41:05.971Z,11.90
2019-04-11T03:43:34.600Z,11.90
2019-04-11T03:46:15.976Z,12.00
2019-04-11T03:48:40.137Z,12.00
2019-04-11T03:50:59.391Z,12.10
2019-04-11T03:53:32.454Z,12.10
2019-04-11T03:56:04.403Z,12.20
2019-04-11T03:58:39.526Z,12.20
2019-04-11T04:01:13.999Z,12.20
2019-04-11T04:03:46.641Z,12.10
2019-04-11T04:06:19.129Z,12.10
2019-04-11T04:09:00.594Z,12.10
2019-04-11T04:11:32.070Z,12.10
2019-04-11T04:14:08.190Z,12.20
2019-04-11T04:16:49.904Z,12.30
2019-04-11T04:19:24.844Z,12.30
2019-04-11T04:22:16.072Z,12.40
2019-04-11T04:24:55.727Z,12.30
2019-04-11T04:27:32.458Z,12.30
2019-04-11T04:30:06.154Z,12.30
2019-04-11T04:32:38.496Z,12.20
2019-04-11T04:35:14.755Z,12.10
2019-04-11T04:37:43.910Z,12.10
2019-04-11T04:40:31.434Z,12.10
2019-04-11T04:42:51.030Z,12.10
2019-04-11T04:45:23.708Z,12.10
2019-04-11T04:48:01.422Z,12.20
2019-04-11T04:50:28.255Z,12.20
2019-04-11T04:53:00.939Z,12.20
2019-04-11T04:55:30.789Z,12.30
2019-04-11T04:58:02.039Z,12.30
2019-04-11T05:00:37.652Z,12.40
2019-04-11T05:03:19.889Z,12.50
2019-04-11T05:05:50.991Z,12.60
2019-04-11T05:08:22.888Z,12.50
2019-04-11T05:10:53.612Z,12.50
2019-04-11T05:13:24.538Z,12.40
2019-04-11T05:16:06.958Z,12.40
2019-04-11T05:18:27.951Z,12.50
2019-04-11T05:20:59.007Z,12.40
2019-04-11T05:23:29.821Z,12.50
2019-04-11T05:26:01.642Z,12.70
2019-04-11T05:28:32.297Z,12.80
2019-04-11T05:31:02.722Z,12.70
2019-04-11T05:33:33.255Z,12.80
2019-04-11T05:36:04.034Z,13.10
2019-04-11T05:38:34.518Z,13.30
2019-04-11T05:41:09.604Z,13.40
2019-04-11T05:43:38.629Z,13.60
2019-04-11T05:46:25.103Z,13.70
2019-04-11T05:49:00.612Z,13.60
2019-04-11T05:51:39.197Z,13.50
2019-04-11T05:54:07.328Z,13.40
2019-04-11T05:56:37.501Z,13.30
2019-04-11T05:59:17.197Z,13.20
2019-04-11T06:01:53.019Z,13.10
2019-04-11T06:04:34.443Z,13.00
2019-04-11T06:07:08.529Z,12.90
2019-04-11T06:09:41.604Z,12.90
2019-04-11T06:12:23.352Z,12.90
2019-04-11T06:15:01.988Z,12.90
2019-04-11T06:17:32.930Z,13.10
2019-04-11T06:20:06.149Z,13.50
2019-04-11T06:22:40.086Z,13.90
2019-04-11T06:25:25.836Z,14.50
2019-04-11T06:27:57.999Z,14.90
2019-04-11T06:30:33.117Z,15.30
2019-04-11T06:33:20.621Z,15.30
2019-04-11T06:36:09.616Z,15.20
2019-04-11T06:38:49.137Z,15.80
2019-04-11T06:41:38.860Z,15.90
2019-04-11T06:44:26.362Z,15.70
2019-04-11T06:47:14.716Z,15.20
2019-04-11T06:49:47.011Z,15.50
2019-04-11T06:52:17.568Z,15.60
2019-04-11T06:55:06.658Z,15.60
2019-04-11T06:57:51.259Z,16.00
2019-04-11T07:00:25.367Z,16.00
2019-04-11T07:02:57.395Z,15.90
2019-04-11T07:05:31.288Z,16.30
2019-04-11T07:08:03.360Z,16.20
2019-04-11T07:10:46.732Z,16.70
2019-04-11T07:13:18.893Z,17.10
2019-04-11T07:15:52.855Z,17.20
2019-04-11T07:18:40.129Z,17.00
2019-04-11T07:21:11.674Z,17.00
2019-04-11T07:23:59.784Z,16.60
2019-04-11T07:26:41.508Z,16.80
2019-04-11T07:29:29.911Z,17.00
2019-04-11T07:32:09.436Z,16.70
2019-04-11T07:34:58.020Z,16.50
2019-04-11T07:37:32.776Z,16.10
2019-04-11T07:40:15.576Z,15.90
2019-04-11T07:43:05.107Z,16.00
2019-04-11T07:45:41.773Z,16.40
2019-04-11T07:48:19.841Z,16.60
2019-04-11T07:50:54.133Z,16.50
2019-04-11T07:53:26.245Z,16.10
2019-04-11T07:55:57.807Z,16.60
2019-04-11T07:58:33.229Z,17.20
2019-04-11T08:01:08.263Z,17.60
2019-04-11T08:03:59.304Z,17.40
2019-04-11T08:06:47.954Z,17.10
2019-04-11T08:09:33.438Z,17.00
2019-04-11T08:12:06.545Z,16.90
2019-04-11T08:14:48.837Z,17.10
2019-04-11T08:17:33.276Z,17.10
2019-04-11T08:20:15.168Z,17.60
2019-04-11T08:22:47.599Z,17.60
2019-04-11T08:25:23.018Z,17.50
2019-04-11T08:28:00.748Z,17.80
2019-04-11T08:30:35.158Z,17.90
2019-04-11T08:33:07.416Z,17.20
2019-04-11T08:35:40.264Z,17.80
2019-04-11T08:38:22.414Z,18.00
2019-04-11T08:40:58.811Z,18.70
2019-04-11T08:43:37.313Z,18.80
2019-04-11T08:46:12.874Z,18.80
2019-04-11T08:48:54.046Z,18.90
2019-04-11T08:51:27.337Z,18.50
2019-04-11T08:54:09.126Z,18.70
2019-04-11T08:56:41.218Z,18.90
2019-04-11T08:59:27.266Z,19.00
2019-04-11T09:01:57.823Z,19.50
2019-04-11T09:04:46.143Z,19.20
2019-04-11T09:07:21.412Z,19.30
2019-04-11T09:10:09.909Z,19.00
2019-04-11T09:12:42.692Z,19.10
2019-04-11T09:15:22.336Z,19.20
2019-04-11T09:18:02.132Z,19.20
2019-04-11T09:20:47.746Z,18.80
2019-04-11T09:23:19.544Z,19.00
2019-04-11T09:25:57.551Z,19.10
2019-04-11T09:28:29.519Z,19.10
2019-04-11T09:31:19.558Z,19.50
2019-04-11T09:33:57.703Z,19.50
2019-04-11T09:36:36.799Z,19.20
2019-04-11T09:39:21.191Z,19.70
2019-04-11T09:42:10.456Z,20.00
2019-04-11T09:44:49.345Z,20.10
2019-04-11T09:47:22.145Z,19.40
2019-04-11T09:49:57.970Z,18.70
2019-04-11T09:52:31.066Z,18.80
2019-04-11T09:55:15.006Z,18.70
2019-04-11T09:57:48.161Z,18.90
2019-04-11T10:00:36.954Z,18.90
2019-04-11T10:03:19.530Z,19.00
2019-04-11T10:05:52.246Z,19.20
2019-04-11T10:08:27.333Z,19.30
2019-04-11T10:11:11.381Z,19.80
2019-04-11T10:14:01.751Z,20.30
2019-04-11T10:16:36.980Z,20.60
2019-04-11T10:19:18.008Z,20.10
2019-04-11T10:22:05.065Z,20.10
2019-04-11T10:24:46.375Z,19.80
2019-04-11T10:27:27.283Z,19.50
2019-04-11T10:30:15.658Z,19.60
2019-04-11T10:32:47.793Z,19.30
2019-04-11T10:35:20.208Z,19.60
2019-04-11T10:37:52.075Z,19.60
2019-04-11T10:40:42.254Z,19.40
2019-04-11T10:43:12.988Z,19.70
2019-04-11T10:45:53.818Z,19.80
2019-04-11T10:48:34.624Z,19.90
2019-04-11T10:51:00.391Z,20.20
2019-04-11T10:53:31.193Z,20.30
2019-04-11T10:56:19.657Z,20.10
2019-04-11T10:58:53.150Z,20.00
2019-04-11T11:01:42.306Z,20.00
2019-04-11T11:04:18.030Z,19.90
2019-04-11T11:06:51.712Z,19.70
2019-04-11T11:09:35.444Z,19.70
2019-04-11T11:12:12.718Z,19.70
2019-04-11T11:14:45.052Z,20.10
2019-04-11T11:17:44.240Z,20.40
2019-04-11T11:20:19.582Z,20.50
2019-04-11T11:22:44.458Z,20.60
2019-04-11T11:25:18.147Z,20.60
2019-04-11T11:27:50.272Z,20.60
2019-04-11T11:30:29.573Z,20.30
2019-04-11T11:33:00.346Z,20.10
2019-04-11T11:35:40.078Z,19.80
2019-04-11T11:38:09.357Z,19.70
2019-04-11T11:40:54.212Z,19.80
2019-04-11T11:43:32.975Z,19.90
2019-04-11T11:46:05.229Z,20.10
2019-04-11T11:48:37.439Z,20.10
2019-04-11T11:51:15.226Z,20.00
2019-04-11T11:53:51.073Z,20.10
2019-04-11T11:56:22.036Z,20.20
2019-04-11T11:58:59.324Z,20.10
2019-04-11T12:01:30.208Z,19.70
2019-04-11T12:04:08.662Z,19.90
2019-04-11T12:06:40.910Z,19.60
2019-04-11T12:09:16.399Z,19.70
2019-04-11T12:11:54.453Z,19.80
2019-04-11T12:14:45.020Z,20.20
2019-04-11T12:17:23.189Z,20.00
2019-04-11T12:20:05.448Z,19.60
2019-04-11T12:22:32.718Z,19.90
2019-04-11T12:25:10.644Z,20.00
2019-04-11T12:27:49.973Z,19.80
2019-04-11T12:30:35.726Z,20.00
2019-04-11T12:33:08.936Z,19.60
2019-04-11T12:35:44.332Z,19.20
2019-04-11T12:38:24.458Z,19.10
2019-04-11T12:40:55.888Z,19.30
2019-04-11T12:43:27.928Z,19.60
2019-04-11T12:46:16.413Z,19.80
2019-04-11T12:48:46.836Z,20.20
2019-04-11T12:51:27.693Z,20.40
2019-04-11T12:53:59.668Z,20.50
2019-04-11T12:56:37.593Z,20.20
2019-04-11T12:59:10.008Z,20.30
2019-04-11T13:01:47.860Z,20.20
2019-04-11T13:04:19.859Z,20.10
2019-04-11T13:07:00.987Z,19.90
2019-04-11T13:09:49.816Z,20.10
2019-04-11T13:12:35.739Z,20.40
2019-04-11T13:15:09.265Z,20.70
2019-04-11T13:17:59.291Z,20.90
2019-04-11T13:20:32.700Z,21.10
2019-04-11T13:23:19.929Z,21.10
2019-04-11T13:26:08.359Z,21.10
2019-04-11T13:28:42.997Z,21.20
2019-04-11T13:31:31.232Z,21.00
2019-04-11T13:34:11.207Z,20.90
2019-04-11T13:36:58.039Z,20.80
2019-04-11T13:39:29.037Z,20.60
2019-04-11T13:42:04.080Z,20.40
2019-04-11T13:44:41.660Z,20.40
2019-04-11T13:47:25.580Z,20.50
2019-04-11T13:49:58.945Z,20.40
2019-04-11T13:52:30.909Z,20.40
2019-04-11T13:55:06.478Z,20.40
2019-04-11T13:57:59.186Z,20.40
2019-04-11T14:00:40.142Z,20.40
2019-04-11T14:03:29.573Z,20.40
2019-04-11T14:06:01.772Z,20.20
2019-04-11T14:08:37.063Z,20.20
2019-04-11T14:11:11.670Z,20.10
2019-04-11T14:13:43.920Z,20.20
2019-04-11T14:16:18.868Z,20.20
2019-04-11T14:18:51.011Z,20.30
2019-04-11T14:21:31.780Z,20.20
2019-04-11T14:24:11.600Z,20.20
2019-04-11T14:26:57.239Z,20.10
2019-04-11T14:29:29.379Z,20.10
2019-04-11T14:32:01.437Z,20.10
2019-04-11T14:34:39.334Z,20.00
2019-04-11T14:37:11.500Z,20.00
2019-04-11T14:39:46.160Z,19.90
2019-04-11T14:42:36.181Z,19.90
2019-04-11T14:45:11.801Z,19.90
2019-04-11T14:48:00.108Z,19.90
2019-04-11T14:50:40.553Z,19.80
2019-04-11T14:53:22.377Z,19.80
2019-04-11T14:55:54.532Z,19.70
2019-04-11T14:58:35.919Z,19.80
2019-04-11T15:01:07.990Z,19.80
2019-04-11T15:04:02.217Z,19.80
2019-04-11T15:06:55.487Z,19.70
2019-04-11T15:13:05.561Z,19.50
2019-04-11T15:15:48.470Z,19.50
2019-04-11T15:18:19.868Z,19.50
2019-04-11T15:20:56.498Z,19.40
2019-04-11T15:23:41.049Z,19.30
2019-04-11T15:26:21.819Z,19.30
2019-04-11T15:28:54.106Z,19.20
2019-04-11T15:31:39.468Z,19.20
2019-04-11T15:34:24.082Z,19.20
2019-04-11T15:37:11.159Z,19.10
2019-04-11T15:39:59.946Z,19.00
2019-04-11T15:42:47.085Z,18.90
2019-04-11T15:45:25.398Z,18.80
2019-04-11T15:47:57.654Z,18.70
2019-04-11T15:50:46.129Z,18.60
2019-04-11T15:53:18.279Z,18.50
2019-04-11T15:56:07.833Z,18.30
2019-04-11T15:58:52.973Z,18.20
2019-04-11T16:01:42.794Z,18.00
2019-04-11T16:04:18.043Z,17.80
2019-04-11T16:07:08.670Z,17.60
2019-04-11T16:09:42.158Z,17.40
2019-04-11T16:12:16.379Z,17.30
2019-04-11T16:14:48.851Z,17.10
2019-04-11T16:17:38.736Z,17.00
2019-04-11T16:20:37.874Z,16.90
2019-04-11T16:23:40.775Z,16.80
2019-04-11T16:29:32.802Z,16.80
2019-04-11T16:32:15.263Z,16.80
2019-04-11T16:34:55.754Z,16.70
2019-04-11T16:37:48.449Z,16.60
2019-04-11T16:40:53.403Z,16.40
2019-04-11T16:43:25.152Z,16.20
2019-04-11T16:46:16.156Z,16.00
2019-04-11T16:48:47.936Z,15.90
2019-04-11T16:51:30.152Z,15.80
2019-04-11T16:53:50.593Z,15.70
2019-04-11T16:56:21.311Z,15.70
2019-04-11T16:58:55.057Z,15.60
2019-04-11T17:04:39.404Z,15.50
2019-04-11T17:07:31.486Z,15.40
2019-04-11T17:10:07.987Z,15.40
2019-04-11T17:12:38.952Z,15.30
2019-04-11T17:15:12.602Z,15.10
2019-04-11T17:17:48.346Z,15.10
2019-04-11T17:20:21.655Z,15.00
2019-04-11T18:02:25.807Z,14.40
2019-04-11T18:04:59.748Z,14.30
2019-04-11T18:08:12.827Z,14.30
2019-04-11T18:10:45.541Z,14.30
2019-04-11T18:13:18.843Z,14.30
2019-04-11T18:15:49.511Z,14.30
2019-04-11T18:18:21.631Z,14.20
2019-04-11T18:20:55.678Z,14.20
2019-04-11T18:23:37.447Z,14.20
2019-04-11T18:26:09.794Z,14.10
2019-04-11T18:28:43.220Z,14.20
2019-04-11T18:35:01.776Z,14.30
2019-04-11T18:58:17.873Z,14.50
2019-04-11T19:00:54.634Z,14.50
2019-04-11T19:03:35.999Z,14.40
2019-04-11T19:06:03.916Z,14.40
2019-04-11T19:08:43.117Z,14.30
2019-04-11T19:11:43.941Z,14.20
2019-04-11T19:14:17.299Z,14.00
2019-04-11T19:16:56.986Z,13.90
2019-04-11T19:19:32.643Z,13.80
2019-04-11T19:22:05.570Z,13.80
2019-04-11T19:24:36.417Z,13.80
2019-04-11T19:27:08.137Z,13.80
2019-04-11T19:29:39.050Z,13.70
2019-04-11T19:32:17.387Z,13.60
2019-04-11T19:34:50.911Z,13.50
2019-04-11T19:37:27.033Z,13.40
2019-04-11T19:39:57.818Z,13.30
2019-04-11T19:42:33.008Z,13.20
2019-04-11T19:45:20.165Z,13.20
2019-04-11T19:47:52.253Z,13.10
2019-04-11T19:50:26.773Z,13.10
2019-04-11T19:52:57.924Z,13.10
2019-04-11T20:03:31.692Z,12.90
2019-04-11T20:26:19.974Z,12.40
2019-04-11T20:29:15.968Z,12.40
2019-04-11T20:31:48.042Z,12.40
2019-04-11T20:34:27.501Z,12.30
2019-04-11T20:36:50.517Z,12.20
2019-04-11T20:39:20.934Z,12.30
2019-04-11T20:41:53.464Z,12.30
2019-04-11T20:44:27.125Z,12.20
2019-04-11T20:46:55.600Z,12.20
2019-04-11T20:49:26.058Z,12.10
2019-04-11T20:51:56.432Z,12.10
2019-04-11T20:54:41.027Z,12.20
2019-04-11T20:57:12.676Z,12.30
2019-04-11T20:59:43.328Z,12.40
2019-04-11T21:02:16.542Z,12.40
2019-04-11T21:04:46.966Z,12.30
2019-04-11T21:07:17.520Z,12.20
2019-04-11T21:09:47.901Z,12.20
2019-04-11T21:12:18.248Z,12.20
2019-04-11T21:14:48.791Z,12.30
2019-04-11T21:17:19.195Z,12.30
2019-04-11T21:19:50.928Z,12.10
2019-04-11T21:22:23.945Z,12.20
2019-04-11T21:24:53.961Z,12.20
2019-04-11T21:27:24.364Z,12.10
2019-04-11T21:29:55.066Z,12.10
2019-04-11T21:32:25.500Z,12.00
2019-04-11T21:34:55.898Z,12.00
2019-04-11T21:37:26.351Z,12.10
2019-04-11T21:39:56.875Z,12.20
2019-04-11T21:42:27.263Z,12.20
2019-04-11T21:44:57.863Z,12.20
2019-04-11T21:47:31.333Z,12.30
2019-04-11T21:50:09.414Z,12.40
2019-04-11T21:52:43.435Z,12.30
2019-04-11T21:55:15.046Z,12.20
2019-04-11T21:57:48.303Z,12.10
2019-04-11T22:00:22.154Z,12.10
2019-04-11T22:02:51.997Z,12.10
2019-04-11T22:05:23.674Z,11.90
2019-04-11T22:07:55.581Z,11.80
2019-04-11T22:10:26.531Z,11.70
2019-04-11T22:12:57.047Z,11.70
2019-04-11T22:15:28.794Z,11.80
2019-04-11T22:17:59.246Z,11.70
2019-04-11T22:20:31.312Z,11.80
2019-04-11T22:23:01.720Z,11.70
2019-04-11T22:25:33.591Z,11.60
2019-04-11T22:28:03.977Z,11.50
2019-04-11T22:30:34.566Z,11.50
2019-04-11T22:33:06.907Z,11.40
2019-04-11T22:35:37.758Z,11.40
2019-04-11T22:38:08.208Z,11.30
2019-04-11T22:40:38.683Z,11.40
2019-04-11T22:43:22.539Z,11.30
2019-04-11T22:45:42.231Z,11.30
2019-04-11T22:48:12.736Z,11.20
2019-04-11T22:50:43.231Z,11.10
2019-04-11T22:53:13.639Z,11.10
2019-04-11T22:55:44.095Z,11.00
2019-04-11T22:58:14.779Z,10.90
2019-04-11T23:00:45.970Z,10.90
2019-04-11T23:03:18.306Z,10.80
2019-04-11T23:05:48.731Z,10.80
2019-04-11T23:08:19.897Z,10.80
2019-04-11T23:10:50.481Z,10.80
2019-04-11T23:13:20.971Z,10.70
2019-04-11T23:15:51.538Z,10.70
2019-04-11T23:18:22.027Z,10.70
2019-04-11T23:20:52.418Z,10.70
2019-04-11T23:23:23.026Z,10.60
2019-04-11T23:25:53.457Z,10.50
2019-04-11T23:28:23.984Z,10.50
2019-04-11T23:30:54.451Z,10.40
2019-04-11T23:33:24.921Z,10.40
2019-04-11T23:35:55.421Z,10.40
2019-04-11T23:38:25.933Z,10.50
2019-04-11T23:40:56.521Z,10.50
2019-04-11T23:43:27.195Z,10.60
2019-04-11T23:45:57.680Z,10.50
2019-04-11T23:48:28.228Z,10.30
2019-04-11T23:50:58.705Z,10.20
2019-04-11T23:53:29.308Z,10.10
2019-04-11T23:56:00.732Z,10.00
2019-04-11T23:58:32.126Z,10.00
